sensor_id;sensor_type;location;lat;lon;timestamp;P1;durP1;ratioP1;P2;durP2;ratioP2
26654;SDS011;14278;50.784;4.630;2023-08-06T00:00:50;0.90;;;0.70;;
26654;SDS011;14278;50.784;4.630;2023-08-06T00:03:16;0.60;;;0.40;;
26654;SDS011;14278;50.784;4.630;2023-08-06T00:05:42;0.30;;;0.30;;
26654;SDS011;14278;50.784;4.630;2023-08-06T00:08:08;0.30;;;0.30;;
26654;SDS011;14278;50.784;4.630;2023-08-06T00:10:34;0.83;;;0.57;;
26654;SDS011;14278;50.784;4.630;2023-08-06T00:13:00;0.87;;;0.57;;
26654;SDS011;14278;50.784;4.630;2023-08-06T00:15:25;0.40;;;0.40;;
26654;SDS011;14278;50.784;4.630;2023-08-06T00:17:51;0.60;;;0.60;;
26654;SDS011;14278;50.784;4.630;2023-08-06T00:20:17;0.60;;;0.60;;
26654;SDS011;14278;50.784;4.630;2023-08-06T00:22:43;0.70;;;0.60;;
26654;SDS011;14278;50.784;4.630;2023-08-06T00:25:09;0.57;;;0.57;;
26654;SDS011;14278;50.784;4.630;2023-08-06T00:27:34;4.10;;;0.90;;
26654;SDS011;14278;50.784;4.630;2023-08-06T00:30:00;1.27;;;1.00;;
26654;SDS011;14278;50.784;4.630;2023-08-06T00:32:27;0.90;;;0.80;;
26654;SDS011;14278;50.784;4.630;2023-08-06T00:34:53;0.83;;;0.77;;
26654;SDS011;14278;50.784;4.630;2023-08-06T00:37:19;0.93;;;0.80;;
26654;SDS011;14278;50.784;4.630;2023-08-06T00:39:45;1.30;;;1.00;;
26654;SDS011;14278;50.784;4.630;2023-08-06T00:42:15;1.13;;;0.87;;
26654;SDS011;14278;50.784;4.630;2023-08-06T00:44:45;0.80;;;0.80;;
26654;SDS011;14278;50.784;4.630;2023-08-06T00:47:11;0.77;;;0.77;;
26654;SDS011;14278;50.784;4.630;2023-08-06T00:49:38;0.53;;;0.53;;
26654;SDS011;14278;50.784;4.630;2023-08-06T00:52:05;2.30;;;1.00;;
26654;SDS011;14278;50.784;4.630;2023-08-06T00:54:33;0.70;;;0.70;;
26654;SDS011;14278;50.784;4.630;2023-08-06T00:57:00;1.30;;;1.10;;
26654;SDS011;14278;50.784;4.630;2023-08-06T00:59:27;1.70;;;1.03;;
26654;SDS011;14278;50.784;4.630;2023-08-06T01:01:55;1.23;;;1.13;;
26654;SDS011;14278;50.784;4.630;2023-08-06T01:04:23;0.87;;;0.87;;
26654;SDS011;14278;50.784;4.630;2023-08-06T01:06:52;5.80;;;1.10;;
26654;SDS011;14278;50.784;4.630;2023-08-06T01:15:13;1.43;;;1.33;;
26654;SDS011;14278;50.784;4.630;2023-08-06T01:17:45;1.07;;;1.00;;
26654;SDS011;14278;50.784;4.630;2023-08-06T01:20:11;0.97;;;0.93;;
26654;SDS011;14278;50.784;4.630;2023-08-06T01:22:37;2.73;;;1.20;;
26654;SDS011;14278;50.784;4.630;2023-08-06T01:25:03;2.87;;;1.53;;
26654;SDS011;14278;50.784;4.630;2023-08-06T01:27:38;1.50;;;1.40;;
26654;SDS011;14278;50.784;4.630;2023-08-06T01:30:45;1.63;;;1.30;;
26654;SDS011;14278;50.784;4.630;2023-08-06T01:33:06;3.00;;;1.57;;
26654;SDS011;14278;50.784;4.630;2023-08-06T01:35:39;1.50;;;1.40;;
26654;SDS011;14278;50.784;4.630;2023-08-06T01:38:05;1.20;;;1.10;;
26654;SDS011;14278;50.784;4.630;2023-08-06T01:40:32;2.17;;;1.50;;
26654;SDS011;14278;50.784;4.630;2023-08-06T01:42:58;1.43;;;1.33;;
26654;SDS011;14278;50.784;4.630;2023-08-06T01:45:23;9.13;;;1.73;;
26654;SDS011;14278;50.784;4.630;2023-08-06T01:47:49;1.40;;;1.30;;
26654;SDS011;14278;50.784;4.630;2023-08-06T01:50:15;3.17;;;1.63;;
26654;SDS011;14278;50.784;4.630;2023-08-06T01:52:41;2.13;;;1.93;;
26654;SDS011;14278;50.784;4.630;2023-08-06T01:55:07;2.20;;;2.10;;
26654;SDS011;14278;50.784;4.630;2023-08-06T01:57:33;2.63;;;1.80;;
26654;SDS011;14278;50.784;4.630;2023-08-06T01:59:59;2.90;;;2.20;;
26654;SDS011;14278;50.784;4.630;2023-08-06T02:02:24;1.73;;;1.53;;
26654;SDS011;14278;50.784;4.630;2023-08-06T02:04:51;1.80;;;1.37;;
26654;SDS011;14278;50.784;4.630;2023-08-06T02:07:17;2.13;;;1.70;;
26654;SDS011;14278;50.784;4.630;2023-08-06T02:09:42;2.03;;;1.80;;
26654;SDS011;14278;50.784;4.630;2023-08-06T02:12:08;1.43;;;1.33;;
26654;SDS011;14278;50.784;4.630;2023-08-06T02:14:34;1.30;;;1.20;;
26654;SDS011;14278;50.784;4.630;2023-08-06T02:17:00;2.07;;;1.57;;
26654;SDS011;14278;50.784;4.630;2023-08-06T02:19:26;2.10;;;1.70;;
26654;SDS011;14278;50.784;4.630;2023-08-06T02:21:53;1.73;;;1.53;;
26654;SDS011;14278;50.784;4.630;2023-08-06T02:24:18;2.63;;;1.90;;
26654;SDS011;14278;50.784;4.630;2023-08-06T02:26:44;2.03;;;1.70;;
26654;SDS011;14278;50.784;4.630;2023-08-06T02:29:10;1.03;;;1.03;;
26654;SDS011;14278;50.784;4.630;2023-08-06T02:31:36;2.33;;;1.67;;
26654;SDS011;14278;50.784;4.630;2023-08-06T02:34:02;1.50;;;1.30;;
26654;SDS011;14278;50.784;4.630;2023-08-06T02:36:28;1.40;;;1.30;;
26654;SDS011;14278;50.784;4.630;2023-08-06T02:38:55;1.67;;;1.57;;
26654;SDS011;14278;50.784;4.630;2023-08-06T02:41:21;1.37;;;1.30;;
26654;SDS011;14278;50.784;4.630;2023-08-06T02:43:47;1.83;;;1.10;;
26654;SDS011;14278;50.784;4.630;2023-08-06T02:46:13;2.73;;;1.60;;
26654;SDS011;14278;50.784;4.630;2023-08-06T02:48:39;4.33;;;1.70;;
26654;SDS011;14278;50.784;4.630;2023-08-06T02:51:05;2.33;;;1.73;;
26654;SDS011;14278;50.784;4.630;2023-08-06T02:53:31;2.53;;;1.73;;
26654;SDS011;14278;50.784;4.630;2023-08-06T02:55:57;2.07;;;1.40;;
26654;SDS011;14278;50.784;4.630;2023-08-06T02:58:24;1.50;;;1.40;;
26654;SDS011;14278;50.784;4.630;2023-08-06T03:00:59;1.40;;;1.30;;
26654;SDS011;14278;50.784;4.630;2023-08-06T03:03:30;2.20;;;1.13;;
26654;SDS011;14278;50.784;4.630;2023-08-06T03:05:57;2.60;;;1.40;;
26654;SDS011;14278;50.784;4.630;2023-08-06T03:08:23;1.50;;;1.33;;
26654;SDS011;14278;50.784;4.630;2023-08-06T03:10:49;1.60;;;1.10;;
26654;SDS011;14278;50.784;4.630;2023-08-06T03:13:18;1.37;;;1.27;;
26654;SDS011;14278;50.784;4.630;2023-08-06T03:15:54;1.10;;;1.00;;
26654;SDS011;14278;50.784;4.630;2023-08-06T03:18:21;1.17;;;1.07;;
26654;SDS011;14278;50.784;4.630;2023-08-06T03:20:48;0.93;;;0.93;;
26654;SDS011;14278;50.784;4.630;2023-08-06T03:23:14;2.07;;;1.10;;
26654;SDS011;14278;50.784;4.630;2023-08-06T03:25:40;1.37;;;1.27;;
26654;SDS011;14278;50.784;4.630;2023-08-06T03:28:05;1.20;;;0.93;;
26654;SDS011;14278;50.784;4.630;2023-08-06T03:30:31;1.87;;;1.13;;
26654;SDS011;14278;50.784;4.630;2023-08-06T03:32:57;1.63;;;1.30;;
26654;SDS011;14278;50.784;4.630;2023-08-06T03:35:23;0.80;;;0.80;;
26654;SDS011;14278;50.784;4.630;2023-08-06T03:37:49;1.77;;;1.33;;
26654;SDS011;14278;50.784;4.630;2023-08-06T03:40:15;0.83;;;0.83;;
26654;SDS011;14278;50.784;4.630;2023-08-06T03:42:41;1.27;;;0.90;;
26654;SDS011;14278;50.784;4.630;2023-08-06T03:45:07;1.53;;;1.30;;
26654;SDS011;14278;50.784;4.630;2023-08-06T03:47:33;1.73;;;1.10;;
26654;SDS011;14278;50.784;4.630;2023-08-06T03:49:59;1.23;;;1.03;;
26654;SDS011;14278;50.784;4.630;2023-08-06T03:52:25;1.13;;;1.03;;
26654;SDS011;14278;50.784;4.630;2023-08-06T03:54:51;0.83;;;0.83;;
26654;SDS011;14278;50.784;4.630;2023-08-06T03:57:17;2.87;;;1.50;;
26654;SDS011;14278;50.784;4.630;2023-08-06T03:59:43;3.80;;;1.20;;
26654;SDS011;14278;50.784;4.630;2023-08-06T04:02:09;1.87;;;1.67;;
26654;SDS011;14278;50.784;4.630;2023-08-06T04:04:34;1.23;;;1.13;;
26654;SDS011;14278;50.784;4.630;2023-08-06T04:07:01;1.73;;;1.60;;
26654;SDS011;14278;50.784;4.630;2023-08-06T04:09:28;11.53;;;2.73;;
26654;SDS011;14278;50.784;4.630;2023-08-06T04:11:54;16.17;;;2.77;;
26654;SDS011;14278;50.784;4.630;2023-08-06T04:14:20;6.30;;;3.53;;
26654;SDS011;14278;50.784;4.630;2023-08-06T04:16:46;5.57;;;3.47;;
26654;SDS011;14278;50.784;4.630;2023-08-06T04:19:13;4.83;;;3.73;;
26654;SDS011;14278;50.784;4.630;2023-08-06T04:21:38;12.40;;;4.23;;
26654;SDS011;14278;50.784;4.630;2023-08-06T04:24:04;5.37;;;4.27;;
26654;SDS011;14278;50.784;4.630;2023-08-06T04:26:30;6.33;;;4.37;;
26654;SDS011;14278;50.784;4.630;2023-08-06T04:28:56;6.30;;;4.70;;
26654;SDS011;14278;50.784;4.630;2023-08-06T04:31:22;5.90;;;3.90;;
26654;SDS011;14278;50.784;4.630;2023-08-06T04:33:48;5.50;;;3.57;;
26654;SDS011;14278;50.784;4.630;2023-08-06T04:36:14;4.53;;;3.23;;
26654;SDS011;14278;50.784;4.630;2023-08-06T04:38:40;1.97;;;1.73;;
26654;SDS011;14278;50.784;4.630;2023-08-06T04:41:10;2.87;;;1.70;;
26654;SDS011;14278;50.784;4.630;2023-08-06T04:43:36;0.60;;;0.60;;
26654;SDS011;14278;50.784;4.630;2023-08-06T04:46:02;0.50;;;0.50;;
26654;SDS011;14278;50.784;4.630;2023-08-06T04:48:28;0.60;;;0.60;;
26654;SDS011;14278;50.784;4.630;2023-08-06T04:50:54;0.50;;;0.50;;
26654;SDS011;14278;50.784;4.630;2023-08-06T04:53:20;0.47;;;0.47;;
26654;SDS011;14278;50.784;4.630;2023-08-06T04:55:46;0.73;;;0.70;;
26654;SDS011;14278;50.784;4.630;2023-08-06T04:58:12;0.43;;;0.43;;
26654;SDS011;14278;50.784;4.630;2023-08-06T05:00:39;1.27;;;0.87;;
26654;SDS011;14278;50.784;4.630;2023-08-06T05:03:05;1.97;;;0.90;;
26654;SDS011;14278;50.784;4.630;2023-08-06T05:05:31;1.00;;;1.00;;
26654;SDS011;14278;50.784;4.630;2023-08-06T05:07:57;1.47;;;1.17;;
26654;SDS011;14278;50.784;4.630;2023-08-06T05:10:26;2.13;;;1.17;;
26654;SDS011;14278;50.784;4.630;2023-08-06T05:12:53;1.37;;;1.27;;
26654;SDS011;14278;50.784;4.630;2023-08-06T05:15:19;1.57;;;1.40;;
26654;SDS011;14278;50.784;4.630;2023-08-06T05:17:45;1.83;;;1.03;;
26654;SDS011;14278;50.784;4.630;2023-08-06T05:20:11;1.90;;;1.60;;
26654;SDS011;14278;50.784;4.630;2023-08-06T05:22:37;1.67;;;1.57;;
26654;SDS011;14278;50.784;4.630;2023-08-06T05:25:03;1.93;;;1.70;;
26654;SDS011;14278;50.784;4.630;2023-08-06T05:27:29;2.70;;;2.10;;
26654;SDS011;14278;50.784;4.630;2023-08-06T05:29:55;3.70;;;1.90;;
26654;SDS011;14278;50.784;4.630;2023-08-06T05:32:22;1.07;;;0.97;;
26654;SDS011;14278;50.784;4.630;2023-08-06T05:34:48;1.20;;;1.10;;
26654;SDS011;14278;50.784;4.630;2023-08-06T05:37:13;1.73;;;1.43;;
26654;SDS011;14278;50.784;4.630;2023-08-06T05:39:39;1.83;;;1.40;;
26654;SDS011;14278;50.784;4.630;2023-08-06T05:42:05;1.33;;;1.10;;
26654;SDS011;14278;50.784;4.630;2023-08-06T05:44:32;1.80;;;1.50;;
26654;SDS011;14278;50.784;4.630;2023-08-06T05:46:58;1.67;;;1.20;;
26654;SDS011;14278;50.784;4.630;2023-08-06T05:49:23;2.20;;;1.37;;
26654;SDS011;14278;50.784;4.630;2023-08-06T05:51:49;2.93;;;1.57;;
26654;SDS011;14278;50.784;4.630;2023-08-06T05:54:15;2.57;;;1.40;;
26654;SDS011;14278;50.784;4.630;2023-08-06T05:56:41;0.87;;;0.87;;
26654;SDS011;14278;50.784;4.630;2023-08-06T05:59:07;1.50;;;1.30;;
26654;SDS011;14278;50.784;4.630;2023-08-06T06:01:32;2.40;;;1.33;;
26654;SDS011;14278;50.784;4.630;2023-08-06T06:03:58;1.30;;;1.20;;
26654;SDS011;14278;50.784;4.630;2023-08-06T06:06:24;2.70;;;1.40;;
26654;SDS011;14278;50.784;4.630;2023-08-06T06:08:50;1.20;;;1.10;;
26654;SDS011;14278;50.784;4.630;2023-08-06T06:11:16;1.47;;;1.37;;
26654;SDS011;14278;50.784;4.630;2023-08-06T06:13:42;1.40;;;1.30;;
26654;SDS011;14278;50.784;4.630;2023-08-06T06:16:07;3.83;;;1.40;;
26654;SDS011;14278;50.784;4.630;2023-08-06T06:18:33;2.87;;;1.60;;
26654;SDS011;14278;50.784;4.630;2023-08-06T06:20:59;1.83;;;1.43;;
26654;SDS011;14278;50.784;4.630;2023-08-06T06:23:25;2.40;;;1.30;;
26654;SDS011;14278;50.784;4.630;2023-08-06T06:25:51;1.20;;;1.10;;
26654;SDS011;14278;50.784;4.630;2023-08-06T06:28:17;1.23;;;1.13;;
26654;SDS011;14278;50.784;4.630;2023-08-06T06:30:43;5.33;;;2.07;;
26654;SDS011;14278;50.784;4.630;2023-08-06T06:33:09;3.60;;;2.10;;
26654;SDS011;14278;50.784;4.630;2023-08-06T06:35:35;2.07;;;1.73;;
26654;SDS011;14278;50.784;4.630;2023-08-06T06:38:01;1.43;;;1.20;;
26654;SDS011;14278;50.784;4.630;2023-08-06T06:40:27;9.80;;;2.07;;
26654;SDS011;14278;50.784;4.630;2023-08-06T06:42:53;1.47;;;1.23;;
26654;SDS011;14278;50.784;4.630;2023-08-06T06:45:19;3.30;;;1.77;;
26654;SDS011;14278;50.784;4.630;2023-08-06T06:47:45;1.47;;;1.37;;
26654;SDS011;14278;50.784;4.630;2023-08-06T06:50:11;1.30;;;1.20;;
26654;SDS011;14278;50.784;4.630;2023-08-06T06:52:37;1.60;;;1.50;;
26654;SDS011;14278;50.784;4.630;2023-08-06T06:55:03;1.30;;;1.20;;
26654;SDS011;14278;50.784;4.630;2023-08-06T06:57:29;1.60;;;1.20;;
26654;SDS011;14278;50.784;4.630;2023-08-06T06:59:55;4.20;;;1.70;;
26654;SDS011;14278;50.784;4.630;2023-08-06T07:02:21;3.23;;;1.43;;
26654;SDS011;14278;50.784;4.630;2023-08-06T07:04:47;1.70;;;1.37;;
26654;SDS011;14278;50.784;4.630;2023-08-06T07:07:12;2.30;;;1.63;;
26654;SDS011;14278;50.784;4.630;2023-08-06T07:09:39;2.27;;;1.53;;
26654;SDS011;14278;50.784;4.630;2023-08-06T07:12:05;3.40;;;1.50;;
26654;SDS011;14278;50.784;4.630;2023-08-06T07:14:31;1.47;;;1.30;;
26654;SDS011;14278;50.784;4.630;2023-08-06T07:16:57;1.83;;;1.40;;
26654;SDS011;14278;50.784;4.630;2023-08-06T07:19:23;2.93;;;1.93;;
26654;SDS011;14278;50.784;4.630;2023-08-06T07:21:49;2.80;;;1.47;;
26654;SDS011;14278;50.784;4.630;2023-08-06T07:24:15;2.87;;;1.30;;
26654;SDS011;14278;50.784;4.630;2023-08-06T07:26:41;1.43;;;1.33;;
26654;SDS011;14278;50.784;4.630;2023-08-06T07:29:07;1.80;;;1.50;;
26654;SDS011;14278;50.784;4.630;2023-08-06T07:31:33;2.80;;;1.60;;
26654;SDS011;14278;50.784;4.630;2023-08-06T07:33:59;4.23;;;2.00;;
26654;SDS011;14278;50.784;4.630;2023-08-06T07:36:25;1.73;;;1.17;;
26654;SDS011;14278;50.784;4.630;2023-08-06T07:38:51;4.43;;;1.60;;
26654;SDS011;14278;50.784;4.630;2023-08-06T07:41:21;1.73;;;1.30;;
26654;SDS011;14278;50.784;4.630;2023-08-06T07:43:47;0.80;;;0.67;;
26654;SDS011;14278;50.784;4.630;2023-08-06T07:46:13;1.80;;;1.40;;
26654;SDS011;14278;50.784;4.630;2023-08-06T07:48:39;1.60;;;1.30;;
26654;SDS011;14278;50.784;4.630;2023-08-06T07:51:05;1.33;;;1.13;;
26654;SDS011;14278;50.784;4.630;2023-08-06T07:53:31;1.60;;;1.27;;
26654;SDS011;14278;50.784;4.630;2023-08-06T07:55:57;1.27;;;0.97;;
26654;SDS011;14278;50.784;4.630;2023-08-06T07:58:23;0.93;;;0.87;;
26654;SDS011;14278;50.784;4.630;2023-08-06T08:00:50;1.10;;;1.00;;
26654;SDS011;14278;50.784;4.630;2023-08-06T08:03:16;7.27;;;0.80;;
26654;SDS011;14278;50.784;4.630;2023-08-06T08:05:42;0.60;;;0.60;;
26654;SDS011;14278;50.784;4.630;2023-08-06T08:08:09;0.90;;;0.60;;
26654;SDS011;14278;50.784;4.630;2023-08-06T08:10:35;0.80;;;0.50;;
26654;SDS011;14278;50.784;4.630;2023-08-06T08:13:03;1.07;;;0.70;;
26654;SDS011;14278;50.784;4.630;2023-08-06T08:15:29;1.70;;;0.73;;
26654;SDS011;14278;50.784;4.630;2023-08-06T08:17:56;1.97;;;0.67;;
26654;SDS011;14278;50.784;4.630;2023-08-06T08:20:22;1.17;;;0.97;;
26654;SDS011;14278;50.784;4.630;2023-08-06T08:22:48;1.30;;;0.83;;
26654;SDS011;14278;50.784;4.630;2023-08-06T08:25:15;3.10;;;0.40;;
26654;SDS011;14278;50.784;4.630;2023-08-06T08:27:41;1.57;;;1.37;;
26654;SDS011;14278;50.784;4.630;2023-08-06T08:30:07;2.43;;;0.77;;
26654;SDS011;14278;50.784;4.630;2023-08-06T08:32:33;0.93;;;0.60;;
26654;SDS011;14278;50.784;4.630;2023-08-06T08:34:59;1.73;;;0.70;;
26654;SDS011;14278;50.784;4.630;2023-08-06T08:37:25;2.30;;;0.70;;
26654;SDS011;14278;50.784;4.630;2023-08-06T08:39:51;0.80;;;0.63;;
26654;SDS011;14278;50.784;4.630;2023-08-06T08:42:17;2.00;;;0.60;;
26654;SDS011;14278;50.784;4.630;2023-08-06T08:44:43;2.30;;;0.83;;
26654;SDS011;14278;50.784;4.630;2023-08-06T08:47:10;1.13;;;0.60;;
26654;SDS011;14278;50.784;4.630;2023-08-06T08:49:36;0.97;;;0.70;;
26654;SDS011;14278;50.784;4.630;2023-08-06T08:52:03;0.57;;;0.30;;
26654;SDS011;14278;50.784;4.630;2023-08-06T08:54:35;0.60;;;0.60;;
26654;SDS011;14278;50.784;4.630;2023-08-06T08:57:03;6.33;;;0.60;;
26654;SDS011;14278;50.784;4.630;2023-08-06T08:59:32;0.97;;;0.60;;
26654;SDS011;14278;50.784;4.630;2023-08-06T09:01:59;1.20;;;0.67;;
26654;SDS011;14278;50.784;4.630;2023-08-06T09:04:26;1.17;;;0.70;;
26654;SDS011;14278;50.784;4.630;2023-08-06T09:06:56;0.63;;;0.63;;
26654;SDS011;14278;50.784;4.630;2023-08-06T09:09:31;1.30;;;0.80;;
26654;SDS011;14278;50.784;4.630;2023-08-06T09:12:01;0.83;;;0.50;;
26654;SDS011;14278;50.784;4.630;2023-08-06T09:14:37;0.60;;;0.53;;
26654;SDS011;14278;50.784;4.630;2023-08-06T09:17:03;0.67;;;0.67;;
26654;SDS011;14278;50.784;4.630;2023-08-06T09:19:31;2.07;;;1.00;;
26654;SDS011;14278;50.784;4.630;2023-08-06T09:21:57;3.40;;;0.90;;
26654;SDS011;14278;50.784;4.630;2023-08-06T09:24:25;5.90;;;0.77;;
26654;SDS011;14278;50.784;4.630;2023-08-06T09:26:51;1.37;;;0.50;;
26654;SDS011;14278;50.784;4.630;2023-08-06T09:29:17;1.20;;;0.60;;
26654;SDS011;14278;50.784;4.630;2023-08-06T09:31:44;1.23;;;0.70;;
26654;SDS011;14278;50.784;4.630;2023-08-06T09:34:14;0.37;;;0.37;;
26654;SDS011;14278;50.784;4.630;2023-08-06T09:36:47;12.17;;;0.90;;
26654;SDS011;14278;50.784;4.630;2023-08-06T09:39:19;0.60;;;0.60;;
26654;SDS011;14278;50.784;4.630;2023-08-06T09:41:45;2.10;;;1.23;;
26654;SDS011;14278;50.784;4.630;2023-08-06T09:44:19;0.57;;;0.53;;
26654;SDS011;14278;50.784;4.630;2023-08-06T09:46:47;3.87;;;0.67;;
26654;SDS011;14278;50.784;4.630;2023-08-06T09:49:27;3.40;;;0.90;;
26654;SDS011;14278;50.784;4.630;2023-08-06T09:52:07;2.63;;;1.00;;
26654;SDS011;14278;50.784;4.630;2023-08-06T09:54:35;0.97;;;0.60;;
26654;SDS011;14278;50.784;4.630;2023-08-06T09:57:03;3.90;;;0.70;;
26654;SDS011;14278;50.784;4.630;2023-08-06T09:59:30;1.73;;;0.60;;
26654;SDS011;14278;50.784;4.630;2023-08-06T10:01:58;0.67;;;0.60;;
26654;SDS011;14278;50.784;4.630;2023-08-06T10:04:24;1.90;;;0.63;;
26654;SDS011;14278;50.784;4.630;2023-08-06T10:06:51;0.50;;;0.50;;
26654;SDS011;14278;50.784;4.630;2023-08-06T10:09:18;1.03;;;0.63;;
26654;SDS011;14278;50.784;4.630;2023-08-06T10:11:47;1.30;;;0.70;;
26654;SDS011;14278;50.784;4.630;2023-08-06T10:16:45;1.00;;;0.67;;
26654;SDS011;14278;50.784;4.630;2023-08-06T10:19:12;1.37;;;0.70;;
26654;SDS011;14278;50.784;4.630;2023-08-06T10:21:40;1.07;;;0.70;;
26654;SDS011;14278;50.784;4.630;2023-08-06T10:24:06;1.00;;;0.60;;
26654;SDS011;14278;50.784;4.630;2023-08-06T10:26:35;13.63;;;1.40;;
26654;SDS011;14278;50.784;4.630;2023-08-06T10:29:13;2.70;;;0.73;;
26654;SDS011;14278;50.784;4.630;2023-08-06T10:32:03;0.60;;;0.60;;
26654;SDS011;14278;50.784;4.630;2023-08-06T10:37:22;0.77;;;0.47;;
26654;SDS011;14278;50.784;4.630;2023-08-06T10:39:49;14.80;;;1.47;;
26654;SDS011;14278;50.784;4.630;2023-08-06T10:42:26;1.17;;;0.70;;
26654;SDS011;14278;50.784;4.630;2023-08-06T10:45:12;2.20;;;1.10;;
26654;SDS011;14278;50.784;4.630;2023-08-06T10:47:43;0.30;;;0.30;;
26654;SDS011;14278;50.784;4.630;2023-08-06T10:50:16;0.87;;;0.70;;
26654;SDS011;14278;50.784;4.630;2023-08-06T10:52:43;0.60;;;0.60;;
26654;SDS011;14278;50.784;4.630;2023-08-06T10:55:09;1.23;;;0.60;;
26654;SDS011;14278;50.784;4.630;2023-08-06T10:57:35;0.57;;;0.30;;
26654;SDS011;14278;50.784;4.630;2023-08-06T11:00:03;0.67;;;0.47;;
26654;SDS011;14278;50.784;4.630;2023-08-06T11:02:33;0.87;;;0.60;;
26654;SDS011;14278;50.784;4.630;2023-08-06T11:05:04;5.00;;;0.70;;
26654;SDS011;14278;50.784;4.630;2023-08-06T11:07:34;0.53;;;0.53;;
26654;SDS011;14278;50.784;4.630;2023-08-06T11:10:04;1.63;;;0.60;;
26654;SDS011;14278;50.784;4.630;2023-08-06T11:12:31;0.87;;;0.60;;
26654;SDS011;14278;50.784;4.630;2023-08-06T11:14:58;1.10;;;1.00;;
26654;SDS011;14278;50.784;4.630;2023-08-06T11:17:24;10.73;;;0.70;;
26654;SDS011;14278;50.784;4.630;2023-08-06T11:19:50;2.63;;;0.93;;
26654;SDS011;14278;50.784;4.630;2023-08-06T11:22:17;4.20;;;1.07;;
26654;SDS011;14278;50.784;4.630;2023-08-06T11:24:43;1.97;;;0.87;;
26654;SDS011;14278;50.784;4.630;2023-08-06T11:27:14;10.37;;;1.10;;
26654;SDS011;14278;50.784;4.630;2023-08-06T11:29:41;0.63;;;0.60;;
26654;SDS011;14278;50.784;4.630;2023-08-06T11:32:08;1.27;;;0.97;;
26654;SDS011;14278;50.784;4.630;2023-08-06T11:34:35;1.60;;;1.03;;
26654;SDS011;14278;50.784;4.630;2023-08-06T11:37:05;0.80;;;0.53;;
26654;SDS011;14278;50.784;4.630;2023-08-06T11:39:35;2.47;;;1.13;;
26654;SDS011;14278;50.784;4.630;2023-08-06T11:42:07;2.27;;;1.20;;
26654;SDS011;14278;50.784;4.630;2023-08-06T11:44:36;1.27;;;0.87;;
26654;SDS011;14278;50.784;4.630;2023-08-06T11:47:03;1.27;;;0.90;;
26654;SDS011;14278;50.784;4.630;2023-08-06T11:49:37;1.30;;;0.90;;
26654;SDS011;14278;50.784;4.630;2023-08-06T11:52:19;10.33;;;1.00;;
26654;SDS011;14278;50.784;4.630;2023-08-06T11:54:59;1.20;;;0.93;;
26654;SDS011;14278;50.784;4.630;2023-08-06T11:57:29;1.97;;;1.00;;
26654;SDS011;14278;50.784;4.630;2023-08-06T12:00:09;1.20;;;0.90;;
26654;SDS011;14278;50.784;4.630;2023-08-06T12:02:38;1.97;;;0.80;;
26654;SDS011;14278;50.784;4.630;2023-08-06T12:05:10;0.93;;;0.70;;
26654;SDS011;14278;50.784;4.630;2023-08-06T12:07:50;0.90;;;0.60;;
26654;SDS011;14278;50.784;4.630;2023-08-06T12:10:18;3.53;;;0.60;;
26654;SDS011;14278;50.784;4.630;2023-08-06T12:12:45;1.67;;;0.87;;
26654;SDS011;14278;50.784;4.630;2023-08-06T12:15:11;0.30;;;0.30;;
26654;SDS011;14278;50.784;4.630;2023-08-06T12:17:37;0.47;;;0.47;;
26654;SDS011;14278;50.784;4.630;2023-08-06T12:20:04;0.60;;;0.60;;
26654;SDS011;14278;50.784;4.630;2023-08-06T12:22:31;0.90;;;0.63;;
26654;SDS011;14278;50.784;4.630;2023-08-06T12:25:00;0.70;;;0.70;;
26654;SDS011;14278;50.784;4.630;2023-08-06T12:27:28;3.37;;;0.77;;
26654;SDS011;14278;50.784;4.630;2023-08-06T12:29:54;0.53;;;0.50;;
26654;SDS011;14278;50.784;4.630;2023-08-06T12:32:20;0.53;;;0.43;;
26654;SDS011;14278;50.784;4.630;2023-08-06T12:34:47;0.70;;;0.60;;
26654;SDS011;14278;50.784;4.630;2023-08-06T12:37:13;2.73;;;1.10;;
26654;SDS011;14278;50.784;4.630;2023-08-06T12:39:39;1.50;;;0.80;;
26654;SDS011;14278;50.784;4.630;2023-08-06T12:42:07;0.77;;;0.53;;
26654;SDS011;14278;50.784;4.630;2023-08-06T12:44:34;1.23;;;0.57;;
26654;SDS011;14278;50.784;4.630;2023-08-06T12:47:03;2.07;;;0.93;;
26654;SDS011;14278;50.784;4.630;2023-08-06T12:49:28;1.30;;;0.63;;
26654;SDS011;14278;50.784;4.630;2023-08-06T12:51:56;0.63;;;0.47;;
26654;SDS011;14278;50.784;4.630;2023-08-06T12:54:25;0.63;;;0.63;;
26654;SDS011;14278;50.784;4.630;2023-08-06T12:56:51;3.10;;;0.83;;
26654;SDS011;14278;50.784;4.630;2023-08-06T12:59:17;0.80;;;0.60;;
26654;SDS011;14278;50.784;4.630;2023-08-06T13:01:44;0.77;;;0.63;;
26654;SDS011;14278;50.784;4.630;2023-08-06T13:04:11;0.87;;;0.67;;
26654;SDS011;14278;50.784;4.630;2023-08-06T13:06:37;0.70;;;0.40;;
26654;SDS011;14278;50.784;4.630;2023-08-06T13:09:08;0.57;;;0.57;;
26654;SDS011;14278;50.784;4.630;2023-08-06T13:11:35;1.13;;;0.70;;
26654;SDS011;14278;50.784;4.630;2023-08-06T13:14:09;0.50;;;0.50;;
26654;SDS011;14278;50.784;4.630;2023-08-06T13:16:37;1.13;;;0.60;;
26654;SDS011;14278;50.784;4.630;2023-08-06T13:19:05;1.80;;;0.77;;
26654;SDS011;14278;50.784;4.630;2023-08-06T13:21:35;1.30;;;0.90;;
26654;SDS011;14278;50.784;4.630;2023-08-06T13:24:21;0.90;;;0.63;;
26654;SDS011;14278;50.784;4.630;2023-08-06T13:26:46;0.60;;;0.60;;
26654;SDS011;14278;50.784;4.630;2023-08-06T13:29:12;2.40;;;0.83;;
26654;SDS011;14278;50.784;4.630;2023-08-06T13:31:38;3.20;;;0.53;;
26654;SDS011;14278;50.784;4.630;2023-08-06T13:34:04;0.80;;;0.63;;
26654;SDS011;14278;50.784;4.630;2023-08-06T13:36:30;1.40;;;0.93;;
26654;SDS011;14278;50.784;4.630;2023-08-06T13:38:56;0.90;;;0.80;;
26654;SDS011;14278;50.784;4.630;2023-08-06T13:41:22;1.87;;;0.83;;
26654;SDS011;14278;50.784;4.630;2023-08-06T13:43:48;0.73;;;0.73;;
26654;SDS011;14278;50.784;4.630;2023-08-06T13:46:14;0.70;;;0.60;;
26654;SDS011;14278;50.784;4.630;2023-08-06T13:48:44;1.30;;;0.80;;
26654;SDS011;14278;50.784;4.630;2023-08-06T13:51:12;1.37;;;0.80;;
26654;SDS011;14278;50.784;4.630;2023-08-06T13:53:39;2.53;;;0.53;;
26654;SDS011;14278;50.784;4.630;2023-08-06T13:56:05;1.67;;;0.80;;
26654;SDS011;14278;50.784;4.630;2023-08-06T13:58:32;0.77;;;0.70;;
26654;SDS011;14278;50.784;4.630;2023-08-06T14:00:58;1.27;;;0.80;;
26654;SDS011;14278;50.784;4.630;2023-08-06T14:03:24;1.13;;;0.70;;
26654;SDS011;14278;50.784;4.630;2023-08-06T14:05:50;0.47;;;0.47;;
26654;SDS011;14278;50.784;4.630;2023-08-06T14:08:16;1.80;;;0.87;;
26654;SDS011;14278;50.784;4.630;2023-08-06T14:10:45;0.83;;;0.80;;
26654;SDS011;14278;50.784;4.630;2023-08-06T14:13:11;1.63;;;0.83;;
26654;SDS011;14278;50.784;4.630;2023-08-06T14:15:37;0.83;;;0.57;;
26654;SDS011;14278;50.784;4.630;2023-08-06T14:18:06;1.07;;;0.47;;
26654;SDS011;14278;50.784;4.630;2023-08-06T14:20:33;3.30;;;0.67;;
26654;SDS011;14278;50.784;4.630;2023-08-06T14:22:59;0.43;;;0.43;;
26654;SDS011;14278;50.784;4.630;2023-08-06T14:25:25;1.27;;;0.60;;
26654;SDS011;14278;50.784;4.630;2023-08-06T14:27:51;0.40;;;0.30;;
26654;SDS011;14278;50.784;4.630;2023-08-06T14:30:17;1.40;;;0.90;;
26654;SDS011;14278;50.784;4.630;2023-08-06T14:32:43;2.00;;;0.60;;
26654;SDS011;14278;50.784;4.630;2023-08-06T14:35:09;2.57;;;1.00;;
26654;SDS011;14278;50.784;4.630;2023-08-06T14:37:35;0.37;;;0.37;;
26654;SDS011;14278;50.784;4.630;2023-08-06T14:40:00;0.80;;;0.40;;
26654;SDS011;14278;50.784;4.630;2023-08-06T14:42:27;0.73;;;0.53;;
26654;SDS011;14278;50.784;4.630;2023-08-06T14:44:53;1.47;;;0.90;;
26654;SDS011;14278;50.784;4.630;2023-08-06T14:47:19;0.57;;;0.57;;
26654;SDS011;14278;50.784;4.630;2023-08-06T14:49:44;0.93;;;0.60;;
26654;SDS011;14278;50.784;4.630;2023-08-06T14:52:10;1.73;;;1.10;;
26654;SDS011;14278;50.784;4.630;2023-08-06T14:54:36;1.37;;;0.67;;
26654;SDS011;14278;50.784;4.630;2023-08-06T14:57:02;1.53;;;0.70;;
26654;SDS011;14278;50.784;4.630;2023-08-06T14:59:30;2.10;;;0.47;;